Time;durP1;ratioP1;P1;durP2;ratioP2;P2;SDS_P1;SDS_P2;PMS_P1;PMS_P2;Temp;Humidity;BMP_temperature;BMP_pressure;BME280_temperature;BME280_humidity;BME280_pressure;Samples;Min_cycle;Max_cycle;Signal;HPM_P1;HPM_P2
2022/12/20 00:01:50;;;;;;;52.80;40.20;;;5.80;99.90;;;;;;4222992;28;20063;-82
2022/12/20 00:04:11;;;;;;;53.80;41.08;;;5.80;99.90;;;;;;4215689;28;20095;-82
2022/12/20 00:06:33;;;;;;;49.13;36.45;;;5.80;99.90;;;;;;4223986;28;20142;-82
2022/12/20 00:08:58;;;;;;;42.63;34.20;;;5.80;99.90;;;;;;4220874;28;20223;-82
2022/12/20 00:11:18;;;;;;;38.75;33.05;;;5.80;99.90;;;;;;4230351;28;20293;-82
2022/12/20 00:13:39;;;;;;;42.28;34.30;;;5.70;99.90;;;;;;4217993;28;20251;-82
2022/12/20 00:16:12;;;;;;;30.65;27.38;;;5.70;99.90;;;;;;4231948;28;20296;-82
2022/12/20 00:18:32;;;;;;;33.50;29.95;;;5.70;99.90;;;;;;4223017;28;20386;-82
2022/12/20 00:21:01;;;;;;;41.15;34.63;;;5.70;99.90;;;;;;4234548;28;20077;-82
2022/12/20 00:23:20;;;;;;;54.33;38.40;;;5.70;99.90;;;;;;4226554;28;20239;-82
2022/12/20 00:25:41;;;;;;;55.55;41.75;;;5.60;99.90;;;;;;4229714;28;20070;-82
2022/12/20 00:28:03;;;;;;;48.97;38.25;;;5.70;99.90;;;;;;4232795;28;20239;-82
2022/12/20 00:30:23;;;;;;;50.78;39.17;;;5.70;99.90;;;;;;4231293;28;20062;-82
2022/12/20 00:32:43;;;;;;;40.67;34.03;;;5.70;99.90;;;;;;4226128;28;20047;-82
2022/12/20 00:35:03;;;;;;;40.65;33.25;;;5.70;99.90;;;;;;4222345;28;20031;-82
2022/12/20 00:37:23;;;;;;;40.50;33.78;;;5.70;99.90;;;;;;4244643;28;20038;-82
2022/12/20 00:39:43;;;;;;;39.47;31.83;;;5.70;99.90;;;;;;4243169;28;20099;-82
2022/12/20 00:42:04;;;;;;;45.80;35.42;;;5.70;99.90;;;;;;4241083;28;20043;-83
2022/12/20 00:44:24;;;;;;;45.15;36.33;;;5.70;99.90;;;;;;4230387;28;20108;-82
2022/12/20 00:46:44;;;;;;;37.70;32.92;;;5.70;99.90;;;;;;4224962;28;20051;-82
2022/12/20 00:49:06;;;;;;;42.25;35.33;;;5.70;99.90;;;;;;4221139;28;20054;-83
2022/12/20 00:51:28;;;;;;;35.95;30.45;;;5.70;99.90;;;;;;4231734;28;20046;-83
2022/12/20 00:53:48;;;;;;;41.10;32.50;;;5.70;99.90;;;;;;4233349;28;20054;-83
2022/12/20 00:56:09;;;;;;;37.85;32.95;;;5.70;99.90;;;;;;4220375;28;20239;-83
2022/12/20 00:58:30;;;;;;;41.67;33.78;;;5.80;99.90;;;;;;4228218;28;20047;-83
2022/12/20 01:00:51;;;;;;;44.30;33.67;;;5.70;99.90;;;;;;4225088;28;20051;-82
2022/12/20 01:03:15;;;;;;;35.08;29.98;;;5.70;99.90;;;;;;4229069;28;20230;-82
2022/12/20 01:05:36;;;;;;;35.05;29.52;;;5.80;99.90;;;;;;4221865;28;20366;-82
2022/12/20 01:07:56;;;;;;;38.88;33.20;;;5.80;99.90;;;;;;4235394;28;20142;-82
2022/12/20 01:10:17;;;;;;;35.67;30.33;;;5.80;99.90;;;;;;4229165;28;20051;-82
2022/12/20 01:12:36;;;;;;;41.92;30.05;;;5.80;99.90;;;;;;4233283;28;20066;-82
2022/12/20 01:14:56;;;;;;;48.00;32.47;;;5.80;99.90;;;;;;4221970;28;20386;-82
2022/12/20 01:17:17;;;;;;;40.55;33.63;;;5.80;99.90;;;;;;4228867;28;20062;-82
2022/12/20 01:19:37;;;;;;;40.45;33.10;;;5.80;99.90;;;;;;4210739;28;20043;-82
2022/12/20 01:21:56;;;;;;;41.95;32.63;;;5.80;99.90;;;;;;4219211;28;20094;-82
2022/12/20 01:24:18;;;;;;;41.88;35.50;;;5.80;99.90;;;;;;4231706;28;20039;-82
2022/12/20 01:26:38;;;;;;;52.58;36.78;;;5.80;99.90;;;;;;4230444;28;20062;-82
2022/12/20 01:28:59;;;;;;;43.57;33.80;;;5.80;99.90;;;;;;4226972;28;20362;-82
2022/12/20 01:31:20;;;;;;;34.67;31.00;;;5.80;99.90;;;;;;4228427;28;20047;-82
2022/12/20 01:33:40;;;;;;;36.45;30.92;;;5.80;99.90;;;;;;4219075;28;20167;-82
2022/12/20 01:36:07;;;;;;;37.70;30.63;;;5.70;99.90;;;;;;4225348;28;20055;-82
2022/12/20 01:38:27;;;;;;;39.53;29.52;;;5.70;99.90;;;;;;4210973;28;20035;-82
2022/12/20 01:40:47;;;;;;;30.60;26.83;;;5.70;99.90;;;;;;4216326;28;20079;-82
2022/12/20 01:43:11;;;;;;;34.35;27.85;;;5.70;99.90;;;;;;4228706;28;20055;-82
2022/12/20 01:45:31;;;;;;;35.13;29.83;;;5.70;99.90;;;;;;4231928;28;20115;-82
2022/12/20 01:47:51;;;;;;;34.35;29.33;;;5.70;99.90;;;;;;4229201;28;20047;-82
2022/12/20 01:50:11;;;;;;;37.67;29.52;;;5.70;99.90;;;;;;4231477;28;20390;-82
2022/12/20 01:52:35;;;;;;;35.08;26.67;;;5.70;99.90;;;;;;4232774;28;20399;-82
2022/12/20 01:55:03;;;;;;;34.08;28.98;;;5.70;99.90;;;;;;4219665;28;20078;-82
2022/12/20 01:57:38;;;;;;;36.33;29.58;;;5.70;99.90;;;;;;4227695;28;20308;-82
2022/12/20 01:59:58;;;;;;;31.00;27.70;;;5.70;99.90;;;;;;4213132;28;20075;-82
2022/12/20 02:02:18;;;;;;;32.42;27.48;;;5.70;99.90;;;;;;4222186;28;20054;-82
2022/12/20 02:04:39;;;;;;;30.15;27.15;;;5.70;99.90;;;;;;4215344;28;20112;-82
2022/12/20 02:07:00;;;;;;;34.65;27.92;;;5.70;99.90;;;;;;4225429;28;20051;-82
2022/12/20 02:09:20;;;;;;;30.25;25.60;;;5.70;99.90;;;;;;4210621;28;20055;-82
2022/12/20 02:12:08;;;;;;;29.63;26.60;;;5.70;99.90;;;;;;4215902;28;20059;-82
2022/12/20 02:15:05;;;;;;;30.10;26.80;;;5.70;99.90;;;;;;4234310;28;20071;-82
2022/12/20 02:17:37;;;;;;;31.80;25.88;;;5.70;99.90;;;;;;4220813;28;20095;-82
2022/12/20 02:20:10;;;;;;;28.63;25.70;;;5.70;99.90;;;;;;4231136;28;20077;-82
2022/12/20 02:23:07;;;;;;;29.38;26.48;;;5.70;99.90;;;;;;4228105;28;20043;-82
2022/12/20 02:25:42;;;;;;;29.83;26.10;;;5.70;99.90;;;;;;4224577;28;20043;-82
2022/12/20 02:28:22;;;;;;;32.20;28.52;;;5.70;99.90;;;;;;4227876;28;20043;-82
2022/12/20 02:30:48;;;;;;;34.85;29.20;;;5.70;99.90;;;;;;4230262;28;20104;-82
2022/12/20 02:33:11;;;;;;;33.90;26.98;;;5.70;99.90;;;;;;4221629;28;20370;-82
2022/12/20 02:35:34;;;;;;;36.75;29.92;;;5.70;99.90;;;;;;4227949;28;20043;-82
2022/12/20 02:37:57;;;;;;;34.17;29.17;;;5.70;99.90;;;;;;4225550;28;20100;-82
2022/12/20 02:40:23;;;;;;;32.25;27.80;;;5.70;99.90;;;;;;4232176;28;20051;-82
2022/12/20 02:42:44;;;;;;;31.20;27.92;;;5.80;99.90;;;;;;4217527;28;20055;-82
2022/12/20 02:45:14;;;;;;;35.92;31.02;;;5.70;99.90;;;;;;4226302;28;20058;-82
2022/12/20 02:47:59;;;;;;;31.23;27.75;;;5.70;99.90;;;;;;4225995;28;20047;-82
2022/12/20 02:50:42;;;;;;;35.60;29.42;;;5.80;99.90;;;;;;4233656;28;20393;-82
2022/12/20 02:53:05;;;;;;;40.38;27.73;;;5.80;99.90;;;;;;4233855;28;20039;-83
2022/12/20 02:56:06;;;;;;;33.75;28.02;;;5.70;99.90;;;;;;4232686;28;20084;-83
2022/12/20 02:58:48;;;;;;;31.00;27.15;;;5.70;99.90;;;;;;4156503;28;20068;-83
2022/12/20 03:01:15;;;;;;;34.45;26.80;;;5.70;99.90;;;;;;4156935;28;20077;-82
2022/12/20 03:03:36;;;;;;;29.00;26.25;;;5.70;99.90;;;;;;4157061;28;20077;-83
2022/12/20 03:05:56;;;;;;;29.90;25.58;;;5.70;99.90;;;;;;4156178;28;20100;-83
2022/12/20 03:08:16;;;;;;;32.08;26.83;;;5.70;99.90;;;;;;4144138;28;20038;-83
2022/12/20 03:10:36;;;;;;;28.70;24.95;;;5.70;99.90;;;;;;4157034;28;20089;-83
2022/12/20 03:12:56;;;;;;;29.90;25.23;;;5.70;99.90;;;;;;4155469;28;20065;-83
2022/12/20 03:15:17;;;;;;;26.63;22.35;;;5.70;99.90;;;;;;4156613;28;20418;-83
2022/12/20 03:17:37;;;;;;;27.63;21.67;;;5.70;99.90;;;;;;4155895;28;20456;-83
2022/12/20 03:19:56;;;;;;;25.23;22.70;;;5.70;99.90;;;;;;4156861;28;20053;-83
2022/12/20 03:22:16;;;;;;;24.30;22.27;;;5.70;99.90;;;;;;4156954;28;20862;-83
2022/12/20 03:24:36;;;;;;;27.45;24.05;;;5.70;99.90;;;;;;4156973;28;20249;-83
2022/12/20 03:26:56;;;;;;;26.50;23.83;;;5.70;99.90;;;;;;4156477;28;20084;-83
2022/12/20 03:29:16;;;;;;;27.83;24.85;;;5.80;99.90;;;;;;4156623;28;20045;-83
2022/12/20 03:31:37;;;;;;;27.77;25.05;;;5.70;99.90;;;;;;4156282;28;20053;-83
2022/12/20 03:33:57;;;;;;;29.13;26.02;;;5.80;99.90;;;;;;4196022;28;20351;-83
2022/12/20 03:36:22;;;;;;;33.30;27.15;;;5.80;99.90;;;;;;4235625;28;20046;-83
2022/12/20 03:38:42;;;;;;;28.75;25.65;;;5.70;99.90;;;;;;4232154;28;20070;-83
2022/12/20 03:41:02;;;;;;;28.65;24.88;;;5.70;99.90;;;;;;4224310;28;20055;-83
2022/12/20 03:43:22;;;;;;;29.95;25.88;;;5.70;99.90;;;;;;4228370;28;20085;-83
2022/12/20 03:45:42;;;;;;;27.38;24.55;;;5.70;99.90;;;;;;4221250;28;20059;-83
2022/12/20 03:48:02;;;;;;;28.42;25.42;;;5.70;99.90;;;;;;4230791;28;20038;-83
2022/12/20 03:50:21;;;;;;;27.00;23.83;;;5.70;99.90;;;;;;4223938;28;20078;-83
2022/12/20 03:52:41;;;;;;;27.38;24.08;;;5.70;99.90;;;;;;4218536;28;20043;-83
2022/12/20 03:55:01;;;;;;;26.80;23.42;;;5.70;99.90;;;;;;4224621;28;20059;-83
2022/12/20 03:57:22;;;;;;;26.20;23.55;;;5.70;99.90;;;;;;4215633;28;20042;-82
2022/12/20 03:59:42;;;;;;;26.20;23.55;;;5.70;99.90;;;;;;4225377;28;20263;-82
2022/12/20 04:02:02;;;;;;;28.48;25.08;;;5.70;99.90;;;;;;4231116;28;20101;-82
2022/12/20 04:04:23;;;;;;;28.27;22.55;;;5.70;99.90;;;;;;4224556;28;20074;-82
2022/12/20 04:06:43;;;;;;;27.40;24.58;;;5.80;99.90;;;;;;4228515;28;20238;-82
2022/12/20 04:09:03;;;;;;;30.00;25.40;;;5.80;99.90;;;;;;4226450;28;20043;-82
2022/12/20 04:11:23;;;;;;;34.40;26.90;;;5.70;99.90;;;;;;4219827;28;20346;-83
2022/12/20 04:13:51;;;;;;;27.75;24.85;;;5.70;99.90;;;;;;4232770;28;20073;-83
2022/12/20 04:16:13;;;;;;;33.95;25.13;;;5.70;99.90;;;;;;4217394;28;20044;-83
2022/12/20 04:18:32;;;;;;;34.22;26.73;;;5.80;99.90;;;;;;4219866;28;20043;-83
2022/12/20 04:20:53;;;;;;;33.25;26.80;;;5.80;99.90;;;;;;4216518;28;20055;-83
2022/12/20 04:23:13;;;;;;;30.25;25.05;;;5.80;99.90;;;;;;4217600;28;20043;-83
2022/12/20 04:25:33;;;;;;;28.08;23.95;;;5.70;99.90;;;;;;4234505;28;20047;-83
2022/12/20 04:27:52;;;;;;;28.65;25.77;;;5.70;99.90;;;;;;4223066;28;20074;-83
2022/12/20 04:30:13;;;;;;;30.20;27.10;;;5.70;99.90;;;;;;4223562;28;20055;-83
2022/12/20 04:32:32;;;;;;;28.30;23.88;;;5.70;99.90;;;;;;4230044;28;20050;-83
2022/12/20 04:34:52;;;;;;;26.80;24.00;;;5.70;99.90;;;;;;4230921;28;20050;-83
2022/12/20 04:37:11;;;;;;;28.95;23.38;;;5.70;99.90;;;;;;4230673;28;20361;-83
2022/12/20 04:39:31;;;;;;;29.55;26.58;;;5.70;99.90;;;;;;4216337;28;20079;-83
2022/12/20 04:41:51;;;;;;;29.27;26.15;;;5.70;99.90;;;;;;4232146;28;20051;-83
2022/12/20 04:44:11;;;;;;;29.10;26.17;;;5.70;99.90;;;;;;4233715;28;20090;-83
2022/12/20 04:46:31;;;;;;;27.55;23.98;;;5.70;99.90;;;;;;4230657;28;20047;-83
2022/12/20 04:48:52;;;;;;;31.10;24.70;;;5.70;99.90;;;;;;4218779;28;20382;-83
2022/12/20 04:51:19;;;;;;;30.42;25.77;;;5.70;99.90;;;;;;4230900;28;20156;-83
2022/12/20 04:53:47;;;;;;;31.15;26.77;;;5.70;99.90;;;;;;4223168;28;20086;-83
2022/12/20 04:56:08;;;;;;;28.08;25.35;;;5.70;99.90;;;;;;4227985;28;20077;-83
2022/12/20 04:58:28;;;;;;;26.80;24.08;;;5.70;99.90;;;;;;4233981;28;20042;-83
2022/12/20 05:00:51;;;;;;;27.35;24.83;;;5.70;99.90;;;;;;4222640;28;20135;-83
2022/12/20 05:03:10;;;;;;;32.45;27.20;;;5.70;99.90;;;;;;4218730;28;20050;-83
2022/12/20 05:05:31;;;;;;;29.35;25.38;;;5.70;99.90;;;;;;4229575;28;20043;-83
2022/12/20 05:07:52;;;;;;;28.88;25.85;;;5.60;99.90;;;;;;4227029;28;20047;-83
2022/12/20 05:10:40;;;;;;;25.42;22.92;;;5.70;99.90;;;;;;4213012;28;20094;-83
2022/12/20 05:13:00;;;;;;;27.58;24.77;;;5.70;99.90;;;;;;4151485;28;20084;-83
2022/12/20 05:15:28;;;;;;;26.27;23.65;;;5.70;99.90;;;;;;4159640;28;20044;-83
2022/12/20 05:17:48;;;;;;;29.33;25.83;;;5.70;99.90;;;;;;4164993;28;20033;-83
2022/12/20 05:20:09;;;;;;;27.77;25.10;;;5.70;99.90;;;;;;4159484;28;20278;-83
2022/12/20 05:27:47;;;;;;;27.77;24.88;;;5.80;99.90;;;;;;4150188;28;20080;-83
2022/12/20 05:30:08;;;;;;;27.85;24.52;;;5.70;99.90;;;;;;4152223;28;20281;-83
2022/12/20 05:32:27;;;;;;;28.85;25.83;;;5.70;99.90;;;;;;4149538;28;20455;-83
2022/12/20 05:34:47;;;;;;;33.15;28.05;;;5.70;99.90;;;;;;4147826;28;20053;-83
2022/12/20 05:37:07;;;;;;;33.53;28.55;;;5.70;99.90;;;;;;4145032;28;20044;-83
2022/12/20 05:39:26;;;;;;;32.70;28.48;;;5.70;99.90;;;;;;4150297;28;20240;-83
2022/12/20 05:41:46;;;;;;;32.88;29.42;;;5.70;99.90;;;;;;4146784;28;20333;-83
2022/12/20 05:44:07;;;;;;;27.00;24.23;;;5.70;99.90;;;;;;4148419;28;20414;-83
2022/12/20 05:46:26;;;;;;;30.90;27.63;;;5.70;99.90;;;;;;4147766;28;20049;-83
2022/12/20 05:48:46;;;;;;;28.85;26.05;;;5.70;99.90;;;;;;4150644;28;20054;-83
2022/12/20 05:51:06;;;;;;;29.15;26.05;;;5.70;99.90;;;;;;4233608;28;20046;-83
2022/12/20 05:53:25;;;;;;;28.38;25.38;;;5.70;99.90;;;;;;4222340;28;20082;-83
2022/12/20 05:55:49;;;;;;;26.88;23.67;;;5.70;99.90;;;;;;4221100;28;20055;-83
2022/12/20 05:58:12;;;;;;;33.35;28.00;;;5.70;99.90;;;;;;4231889;28;20063;-83
2022/12/20 06:00:31;;;;;;;32.88;28.30;;;5.70;99.90;;;;;;4220482;28;20395;-83
2022/12/20 06:02:51;;;;;;;31.02;27.70;;;5.80;99.90;;;;;;4212204;28;20217;-83
2022/12/20 06:05:11;;;;;;;30.70;26.52;;;5.80;99.90;;;;;;4217762;28;20137;-83
2022/12/20 06:07:31;;;;;;;33.47;28.27;;;5.80;99.90;;;;;;4234121;28;20078;-83
2022/12/20 06:09:51;;;;;;;27.60;24.70;;;5.70;99.90;;;;;;4233500;28;20054;-83
2022/12/20 06:12:12;;;;;;;31.95;26.55;;;5.80;99.90;;;;;;4232924;28;20290;-83
2022/12/20 06:14:32;;;;;;;28.95;24.88;;;5.80;99.90;;;;;;4216386;28;20051;-83
2022/12/20 06:16:52;;;;;;;28.40;25.45;;;5.80;99.90;;;;;;4221635;28;20055;-83
2022/12/20 06:19:13;;;;;;;28.35;25.20;;;5.80;99.90;;;;;;4225058;28;20144;-83
2022/12/20 06:21:41;;;;;;;31.55;26.40;;;5.80;99.90;;;;;;4222715;28;20039;-83
2022/12/20 06:24:01;;;;;;;27.48;24.40;;;5.80;99.90;;;;;;4227974;28;20141;-84
2022/12/20 06:26:23;;;;;;;26.88;24.13;;;5.80;99.90;;;;;;4229769;28;20054;-84
2022/12/20 06:28:43;;;;;;;27.13;24.38;;;5.80;99.90;;;;;;4227238;28;20043;-84
2022/12/20 06:31:03;;;;;;;30.65;25.15;;;5.80;99.90;;;;;;4227982;28;20050;-84
2022/12/20 06:33:24;;;;;;;28.95;26.17;;;5.80;99.90;;;;;;4227404;28;20046;-84
2022/12/20 06:35:44;;;;;;;30.15;27.15;;;5.80;99.90;;;;;;4222112;28;20046;-84
2022/12/20 06:38:03;;;;;;;29.55;25.95;;;5.80;99.90;;;;;;4216987;28;20047;-84
2022/12/20 06:40:23;;;;;;;34.97;28.38;;;5.80;99.90;;;;;;4221758;28;20043;-84
2022/12/20 06:42:43;;;;;;;42.47;33.67;;;5.80;99.90;;;;;;4215679;28;20048;-84
2022/12/20 06:45:04;;;;;;;35.13;29.42;;;5.90;99.90;;;;;;4228783;28;20277;-84
2022/12/20 06:47:24;;;;;;;35.72;30.80;;;5.90;99.90;;;;;;4215858;28;20062;-84
2022/12/20 06:49:43;;;;;;;32.05;28.75;;;5.90;99.90;;;;;;4222620;28;20112;-84
2022/12/20 06:52:03;;;;;;;31.98;28.77;;;5.80;99.90;;;;;;4227952;28;20390;-84
2022/12/20 06:54:23;;;;;;;32.55;29.40;;;5.90;99.90;;;;;;4225872;28;20047;-84
2022/12/20 06:56:43;;;;;;;33.58;30.08;;;5.90;99.90;;;;;;4208719;28;20252;-84
2022/12/20 06:59:05;;;;;;;32.08;28.70;;;5.90;99.90;;;;;;4230880;28;20223;-84
2022/12/20 07:01:25;;;;;;;39.22;32.83;;;5.90;99.90;;;;;;4227916;28;20358;-84
2022/12/20 07:03:45;;;;;;;33.95;30.00;;;5.80;99.90;;;;;;4230316;28;20327;-84
2022/12/20 07:06:05;;;;;;;31.40;28.02;;;5.80;99.90;;;;;;4224454;28;20073;-84
2022/12/20 07:08:25;;;;;;;31.15;27.88;;;5.80;99.90;;;;;;4212421;28;20055;-84
2022/12/20 07:10:45;;;;;;;33.65;30.42;;;5.80;99.90;;;;;;4229365;28;20112;-84
2022/12/20 07:13:05;;;;;;;32.72;29.13;;;5.80;99.90;;;;;;4219830;28;20059;-84
2022/12/20 07:15:25;;;;;;;40.15;31.50;;;5.80;99.90;;;;;;4223469;28;20079;-84
2022/12/20 07:17:45;;;;;;;48.65;34.15;;;5.80;99.90;;;;;;4223693;28;20119;-84
2022/12/20 07:20:06;;;;;;;41.70;33.83;;;5.80;99.90;;;;;;4227508;28;20406;-84
2022/12/20 07:22:33;;;;;;;42.65;33.35;;;5.80;99.90;;;;;;4222358;28;20050;-84
2022/12/20 07:24:53;;;;;;;42.55;33.88;;;5.80;99.90;;;;;;4227414;28;20453;-84
2022/12/20 07:27:13;;;;;;;33.97;30.27;;;5.80;99.90;;;;;;4230288;28;20051;-84
2022/12/20 07:29:33;;;;;;;37.17;30.25;;;5.80;99.90;;;;;;4219040;28;20486;-84
2022/12/20 07:31:53;;;;;;;35.13;29.80;;;5.80;99.90;;;;;;4219609;28;20051;-84
2022/12/20 07:34:13;;;;;;;34.78;29.42;;;5.80;99.90;;;;;;4221880;28;20066;-84
2022/12/20 07:36:34;;;;;;;32.65;28.15;;;5.80;99.90;;;;;;4227493;28;20408;-84
2022/12/20 07:38:54;;;;;;;32.33;29.05;;;5.80;99.90;;;;;;4229947;28;20043;-84
2022/12/20 07:41:16;;;;;;;34.72;30.88;;;5.90;99.90;;;;;;4230795;28;20039;-84
2022/12/20 07:43:37;;;;;;;33.30;29.42;;;5.90;99.90;;;;;;4230331;28;20050;-84
2022/12/20 07:45:56;;;;;;;31.95;28.67;;;5.90;99.90;;;;;;4233816;28;20046;-84
2022/12/20 07:48:17;;;;;;;32.95;29.40;;;5.90;99.90;;;;;;4229475;28;20664;-84
2022/12/20 07:50:41;;;;;;;35.20;31.75;;;5.90;99.90;;;;;;4220652;28;20043;-84
2022/12/20 07:53:04;;;;;;;36.80;32.88;;;5.90;99.90;;;;;;4225017;28;20047;-84
2022/12/20 07:55:24;;;;;;;;;;;5.90;99.90;;;;;;4219665;28;20231;-84
2022/12/20 07:57:54;;;;;;;39.35;35.08;;;5.90;99.90;;;;;;4228402;28;20180;-84
2022/12/20 08:00:15;;;;;;;48.03;38.42;;;5.90;99.90;;;;;;4227344;28;20038;-84
2022/12/20 08:02:42;;;;;;;47.90;42.13;;;6.00;99.90;;;;;;4227700;28;20078;-84
2022/12/20 08:05:06;;;;;;;38.65;33.47;;;6.00;99.90;;;;;;4230532;28;20112;-84
2022/12/20 08:07:28;;;;;;;42.63;36.50;;;6.00;99.90;;;;;;4232578;28;20070;-84
2022/12/20 08:09:49;;;;;;;37.95;32.95;;;6.00;99.90;;;;;;4216259;28;20113;-84
2022/12/20 08:12:12;;;;;;;40.10;35.42;;;6.00;99.90;;;;;;4230483;28;20109;-84
2022/12/20 08:14:31;;;;;;;43.85;37.17;;;6.00;99.90;;;;;;4227896;28;20089;-84
2022/12/20 08:16:52;;;;;;;47.17;38.92;;;6.00;99.90;;;;;;4217812;28;20047;-84
2022/12/20 08:19:12;;;;;;;44.30;39.28;;;6.00;99.90;;;;;;4235256;28;20080;-84
2022/12/20 08:21:32;;;;;;;46.10;36.92;;;6.10;99.90;;;;;;4211033;28;20051;-84
2022/12/20 08:23:52;;;;;;;52.70;39.47;;;6.10;99.90;;;;;;4227827;28;20051;-84
2022/12/20 08:26:12;;;;;;;42.08;33.50;;;6.10;99.90;;;;;;4216316;28;20055;-84
2022/12/20 08:28:32;;;;;;;27.98;25.23;;;6.10;99.90;;;;;;4223555;28;20160;-84
2022/12/20 08:30:52;;;;;;;32.17;28.88;;;6.00;99.90;;;;;;4216544;28;20062;-84
2022/12/20 08:33:12;;;;;;;36.92;30.38;;;6.00;99.90;;;;;;4232837;28;20080;-84
2022/12/20 08:35:32;;;;;;;36.40;32.50;;;6.10;99.90;;;;;;4229825;28;20047;-84
2022/12/20 08:37:52;;;;;;;34.92;30.80;;;6.10;99.90;;;;;;4228837;28;20054;-84
2022/12/20 08:40:12;;;;;;;35.22;30.88;;;6.10;99.90;;;;;;4234349;28;20396;-84
2022/12/20 08:42:32;;;;;;;35.38;30.60;;;6.10;99.90;;;;;;4234667;28;20082;-84
2022/12/20 08:44:52;;;;;;;37.65;30.42;;;6.10;99.90;;;;;;4229301;28;20054;-84
2022/12/20 08:47:11;;;;;;;35.42;29.35;;;6.20;99.90;;;;;;4231086;28;20112;-84
2022/12/20 08:49:31;;;;;;;34.55;27.58;;;6.20;99.90;;;;;;4224105;28;20097;-84
2022/12/20 08:51:52;;;;;;;31.52;28.35;;;6.20;99.90;;;;;;4235119;28;20073;-84
2022/12/20 08:54:12;;;;;;;35.45;31.33;;;6.20;99.90;;;;;;4231403;28;20092;-84
2022/12/20 08:56:32;;;;;;;38.17;31.10;;;6.20;99.90;;;;;;4213656;28;20044;-84
2022/12/20 08:58:51;;;;;;;39.88;31.42;;;6.30;99.90;;;;;;4223622;28;20244;-85
2022/12/20 09:01:14;;;;;;;40.83;34.85;;;6.30;99.90;;;;;;4226374;28;20123;-84
2022/12/20 09:03:35;;;;;;;35.03;31.25;;;6.30;99.90;;;;;;4213709;28;20108;-84
2022/12/20 09:05:57;;;;;;;30.27;26.92;;;6.40;99.90;;;;;;4211916;28;20436;-84
2022/12/20 09:08:17;;;;;;;29.17;26.23;;;6.40;99.90;;;;;;4225798;28;20067;-84
2022/12/20 09:10:37;;;;;;;29.33;26.40;;;6.40;99.90;;;;;;4223861;28;20090;-84
2022/12/20 09:12:57;;;;;;;25.77;23.10;;;6.40;99.90;;;;;;4229892;28;20080;-84
2022/12/20 09:15:17;;;;;;;21.70;19.67;;;6.50;99.90;;;;;;4222984;28;20094;-84
2022/12/20 09:17:36;;;;;;;21.30;19.38;;;6.40;99.90;;;;;;4229242;28;20381;-85
2022/12/20 09:19:56;;;;;;;20.88;18.92;;;6.40;99.90;;;;;;4222559;28;20047;-85
2022/12/20 09:22:16;;;;;;;18.80;17.13;;;6.40;99.90;;;;;;4228290;28;20413;-84
2022/12/20 09:24:37;;;;;;;21.50;19.90;;;6.40;99.90;;;;;;4217154;28;20043;-85
2022/12/20 09:26:56;;;;;;;24.13;21.90;;;6.50;99.90;;;;;;4221808;28;20302;-84
2022/12/20 09:29:16;;;;;;;27.67;25.13;;;6.50;99.90;;;;;;4230136;28;20074;-84
2022/12/20 09:31:48;;;;;;;25.67;23.02;;;6.50;99.90;;;;;;4229569;28;20066;-84
2022/12/20 09:34:08;;;;;;;26.83;24.60;;;6.60;99.90;;;;;;4231772;28;20107;-84
2022/12/20 09:36:29;;;;;;;29.17;26.08;;;6.60;99.90;;;;;;4228574;28;20056;-84
2022/12/20 09:38:49;;;;;;;31.98;27.50;;;6.60;99.90;;;;;;4229695;28;20042;-84
2022/12/20 09:41:36;;;;;;;34.95;28.05;;;6.70;99.90;;;;;;4227005;28;20180;-84
2022/12/20 09:43:59;;;;;;;35.60;31.92;;;6.70;99.90;;;;;;4225692;28;20042;-84
2022/12/20 09:46:21;;;;;;;29.80;26.88;;;6.80;99.90;;;;;;4218007;28;20085;-83
2022/12/20 09:48:42;;;;;;;29.73;26.15;;;6.80;99.90;;;;;;4223281;28;20077;-83
2022/12/20 09:51:17;;;;;;;27.67;24.85;;;6.90;99.90;;;;;;4238718;28;20062;-83
2022/12/20 09:53:55;;;;;;;28.85;25.85;;;6.90;99.90;;;;;;4227385;28;20058;-83
2022/12/20 09:56:29;;;;;;;26.77;24.23;;;7.00;99.90;;;;;;4226363;28;20142;-83
2022/12/20 09:59:06;;;;;;;29.67;26.83;;;6.90;99.90;;;;;;4219651;28;20047;-84
2022/12/20 10:01:28;;;;;;;33.85;30.10;;;7.00;99.90;;;;;;4231316;28;20057;-84
2022/12/20 10:03:58;;;;;;;35.70;32.20;;;7.10;99.90;;;;;;4231037;28;20045;-84
2022/12/20 10:06:49;;;;;;;32.10;28.13;;;7.10;99.90;;;;;;4220197;28;20055;-84
2022/12/20 10:09:24;;;;;;;34.33;29.83;;;7.10;99.90;;;;;;4227404;28;20372;-84
2022/12/20 10:12:16;;;;;;;29.33;26.52;;;7.20;99.90;;;;;;4293246;27;20182;-84
2022/12/20 10:14:55;;;;;;;26.55;24.23;;;7.20;99.90;;;;;;4287590;27;20044;-84
2022/12/20 10:17:45;;;;;;;26.88;24.58;;;7.30;99.90;;;;;;4287560;27;20045;-84
2022/12/20 10:20:40;;;;;;;30.00;27.02;;;7.30;99.90;;;;;;4286154;27;20144;-84
2022/12/20 10:23:24;;;;;;;28.95;26.02;;;7.40;99.90;;;;;;4287660;27;20049;-85
2022/12/20 10:25:55;;;;;;;34.78;31.05;;;7.40;99.90;;;;;;4287569;27;20075;-84
2022/12/20 10:28:19;;;;;;;38.85;32.85;;;7.50;99.90;;;;;;4287587;27;20092;-84
2022/12/20 10:30:39;;;;;;;33.47;30.17;;;7.50;99.90;;;;;;4271780;27;20115;-85
2022/12/20 10:33:01;;;;;;;36.35;32.65;;;7.60;99.90;;;;;;4271797;27;20054;-85
2022/12/20 10:35:30;;;;;;;35.45;31.70;;;7.60;99.90;;;;;;4269859;27;20057;-85
2022/12/20 10:38:03;;;;;;;34.15;30.73;;;7.70;99.90;;;;;;4277912;27;20403;-85
2022/12/20 10:40:31;;;;;;;35.03;31.30;;;7.80;99.90;;;;;;4281279;27;20113;-85
2022/12/20 10:43:20;;;;;;;36.22;30.80;;;7.80;99.90;;;;;;4278237;27;20075;-85
2022/12/20 10:45:42;;;;;;;39.78;32.35;;;7.90;99.90;;;;;;4277789;27;20234;-85
2022/12/20 10:48:05;;;;;;;34.28;30.65;;;7.90;99.90;;;;;;4280337;27;20076;-85
2022/12/20 10:50:26;;;;;;;35.88;32.53;;;7.90;99.90;;;;;;4273263;27;20133;-85
2022/12/20 10:53:23;;;;;;;34.35;30.85;;;7.90;99.90;;;;;;4275735;27;20384;-85
2022/12/20 10:55:42;;;;;;;36.60;32.58;;;7.90;99.90;;;;;;4263152;27;20054;-84
2022/12/20 10:58:05;;;;;;;29.48;26.50;;;8.00;99.90;;;;;;4268010;27;20119;-85
2022/12/20 11:00:29;;;;;;;26.07;23.53;;;8.10;99.90;;;;;;4268445;27;20388;-85
2022/12/20 11:03:04;;;;;;;25.08;22.65;;;8.20;99.90;;;;;;4273100;27;20537;-84
2022/12/20 11:05:24;;;;;;;26.02;23.52;;;8.20;99.90;;;;;;4263860;27;20436;-85
2022/12/20 11:07:56;;;;;;;22.88;20.75;;;8.20;99.90;;;;;;4273534;27;20046;-85
2022/12/20 11:10:36;;;;;;;24.95;22.33;;;8.20;99.90;;;;;;4266202;27;20306;-85
2022/12/20 11:12:58;;;;;;;24.88;22.42;;;8.30;99.90;;;;;;4275084;27;20302;-85
2022/12/20 11:15:24;;;;;;;22.67;20.60;;;8.40;99.90;;;;;;4261236;27;20135;-85
2022/12/20 11:18:13;;;;;;;26.35;23.73;;;8.40;99.90;;;;;;4275314;27;20086;-86
2022/12/20 11:21:03;;;;;;;21.85;20.08;;;8.50;99.90;;;;;;4276346;27;20042;-86
2022/12/20 11:23:57;;;;;;;20.80;19.20;;;8.50;99.90;;;;;;4266878;27;20061;-86
2022/12/20 11:26:55;;;;;;;19.05;17.45;;;8.50;99.90;;;;;;4249245;27;20400;-86
2022/12/20 11:29:32;;;;;;;18.52;16.55;;;8.60;99.90;;;;;;4252831;27;20045;-86
2022/12/20 11:32:20;;;;;;;19.58;17.85;;;8.60;99.90;;;;;;4263056;27;20083;-86
2022/12/20 11:35:10;;;;;;;21.15;19.00;;;8.70;99.90;;;;;;4262479;27;20139;-86
2022/12/20 11:38:16;;;;;;;17.60;16.38;;;8.80;99.90;;;;;;4265991;27;20042;-86
2022/12/20 11:40:44;;;;;;;17.35;16.02;;;9.00;99.90;;;;;;4204797;28;20086;-86
2022/12/20 11:43:28;;;;;;;20.33;16.67;;;8.90;99.90;;;;;;4244475;27;20086;-86
2022/12/20 11:46:26;;;;;;;17.90;16.27;;;8.80;99.90;;;;;;4257254;27;20384;-86
2022/12/20 11:49:20;;;;;;;19.52;17.90;;;8.90;99.90;;;;;;4259121;27;20042;-86
2022/12/20 11:51:49;;;;;;;;;;;9.10;99.90;;;;;;4263143;27;20376;-86
2022/12/20 11:54:19;;;;;;;22.05;19.85;;;9.20;99.90;;;;;;4256668;27;20170;-86
2022/12/20 11:56:49;;;;;;;29.38;22.98;;;9.10;99.90;;;;;;4264452;27;20075;-86
2022/12/20 11:59:30;;;;;;;27.20;24.52;;;9.20;99.90;;;;;;4264654;27;20388;-86
2022/12/20 12:02:08;;;;;;;25.52;23.02;;;9.40;99.90;;;;;;4264559;27;20037;-86
2022/12/20 12:04:45;;;;;;;19.05;17.13;;;9.60;99.90;;;;;;4261321;27;20455;-86
2022/12/20 12:07:16;;;;;;;17.52;15.77;;;9.50;99.90;;;;;;4248545;27;20592;-86
2022/12/20 12:09:45;;;;;;;15.57;13.77;;;9.70;99.90;;;;;;4262572;27;20046;-87
2022/12/20 12:12:21;;;;;;;14.50;13.18;;;10.00;99.90;;;;;;4266547;27;20075;-87
2022/12/20 12:15:16;;;;;;;13.63;12.90;;;9.90;99.90;;;;;;4262922;27;20048;-87
2022/12/20 12:17:41;;;;;;;9.23;8.63;;;9.80;99.90;;;;;;4263463;27;20038;-87
2022/12/20 12:20:16;;;;;;;10.02;9.43;;;9.80;99.90;;;;;;4266161;27;20058;-87
2022/12/20 12:22:38;;;;;;;13.30;8.57;;;9.90;99.90;;;;;;4259347;27;20079;-87
2022/12/20 12:25:01;;;;;;;9.13;8.43;;;9.90;99.90;;;;;;4268304;27;20066;-87
2022/12/20 12:27:25;;;;;;;;;;;10.00;99.90;;;;;;4261892;27;20399;-86
2022/12/20 12:29:46;;;;;;;7.88;7.35;;;9.90;99.90;;;;;;4246799;27;19991;-86
2022/12/20 12:32:18;;;;;;;10.77;10.23;;;9.90;99.90;;;;;;4254961;27;20046;-86